createdAt,value
2022-09-24T00:01:24.288Z,16.15
2022-09-24T00:04:00.880Z,15.75
2022-09-24T00:06:29.061Z,15.00
2022-09-24T00:08:57.003Z,15.07
2022-09-24T00:11:26.322Z,15.07
2022-09-24T00:13:53.917Z,14.65
2022-09-24T00:16:22.995Z,13.98
2022-09-24T00:18:49.850Z,14.32
2022-09-24T00:21:25.609Z,15.30
2022-09-24T00:23:54.955Z,14.20
2022-09-24T00:26:41.046Z,14.95
2022-09-24T00:29:09.373Z,14.48
2022-09-24T00:31:36.266Z,13.70
2022-09-24T00:34:03.647Z,14.55
2022-09-24T00:36:30.888Z,14.35
2022-09-24T00:38:59.038Z,13.80
2022-09-24T00:41:31.730Z,13.55
2022-09-24T00:43:59.077Z,14.07
2022-09-24T00:46:27.159Z,14.30
2022-09-24T00:48:58.517Z,13.63
2022-09-24T00:51:27.420Z,13.57
2022-09-24T00:53:58.464Z,13.20
2022-09-24T00:56:25.940Z,13.55
2022-09-24T00:58:56.139Z,12.65
2022-09-24T01:01:24.829Z,13.07
2022-09-24T01:03:53.924Z,13.10
2022-09-24T01:06:20.650Z,12.35
2022-09-24T01:11:40.779Z,12.15
2022-09-24T01:14:23.305Z,12.98
2022-09-24T01:17:11.519Z,12.45
2022-09-24T01:19:44.258Z,11.20
2022-09-24T01:22:23.487Z,11.57
2022-09-24T01:25:20.358Z,11.75
2022-09-24T01:28:06.544Z,12.02
2022-09-24T01:30:38.091Z,12.18
2022-09-24T01:33:08.663Z,12.60
2022-09-24T01:35:38.445Z,11.52
2022-09-24T01:38:09.429Z,10.85
2022-09-24T01:40:37.313Z,11.57
2022-09-24T01:43:05.557Z,11.35
2022-09-24T01:45:33.567Z,11.15
2022-09-24T01:48:00.870Z,11.55
2022-09-24T01:50:30.913Z,11.07
2022-09-24T01:53:11.811Z,11.60
2022-09-24T01:55:44.881Z,11.43
2022-09-24T01:58:16.878Z,11.48
2022-09-24T02:00:47.659Z,10.98
2022-09-24T02:03:26.913Z,11.30
2022-09-24T02:06:30.985Z,10.40
2022-09-24T02:08:59.186Z,10.60
2022-09-24T02:11:27.926Z,10.35
2022-09-24T02:14:12.573Z,10.67
2022-09-24T02:16:45.397Z,10.65
2022-09-24T02:19:15.304Z,10.55
2022-09-24T02:21:42.588Z,10.68
2022-09-24T02:24:12.662Z,10.82
2022-09-24T02:26:39.539Z,10.50
2022-09-24T02:29:06.650Z,10.32
2022-09-24T02:31:39.894Z,9.75
2022-09-24T02:34:23.539Z,9.80
2022-09-24T02:36:56.218Z,9.77
2022-09-24T02:39:23.066Z,9.32
2022-09-24T02:41:50.167Z,9.93
2022-09-24T02:44:17.470Z,9.80
2022-09-24T02:46:45.605Z,9.10
2022-09-24T02:49:13.995Z,9.20
2022-09-24T02:51:42.033Z,9.35
2022-09-24T02:54:09.517Z,9.50
2022-09-24T02:56:36.828Z,9.18
2022-09-24T02:59:04.574Z,9.43
2022-09-24T03:01:32.140Z,9.32
2022-09-24T03:03:59.001Z,9.68
2022-09-24T03:06:26.284Z,9.45
2022-09-24T03:08:55.754Z,9.05
2022-09-24T03:11:23.384Z,8.50
2022-09-24T03:13:51.476Z,8.48
2022-09-24T03:16:18.706Z,9.55
2022-09-24T03:18:47.197Z,8.43
2022-09-24T03:21:16.169Z,9.50
2022-09-24T03:23:43.410Z,8.90
2022-09-24T03:26:10.558Z,8.63
2022-09-24T03:28:37.351Z,8.15
2022-09-24T03:31:04.723Z,8.60
2022-09-24T03:33:31.513Z,8.63
2022-09-24T03:36:04.935Z,8.35
2022-09-24T03:38:31.997Z,7.60
2022-09-24T03:40:59.651Z,8.30
2022-09-24T03:43:26.557Z,8.27
2022-09-24T03:45:53.384Z,8.10
2022-09-24T03:48:21.318Z,8.15
2022-09-24T03:50:48.123Z,7.80
2022-09-24T03:53:15.265Z,8.02
2022-09-24T03:55:46.903Z,8.35
2022-09-24T03:58:14.569Z,7.55
2022-09-24T04:00:42.322Z,7.88
2022-09-24T04:03:09.730Z,8.20
2022-09-24T04:05:36.569Z,7.82
2022-09-24T04:08:05.065Z,7.57
2022-09-24T04:10:32.626Z,7.90
2022-09-24T04:12:59.471Z,7.88
2022-09-24T04:15:26.260Z,7.82
2022-09-24T04:17:55.030Z,7.78
2022-09-24T04:20:23.628Z,7.50
2022-09-24T04:22:50.685Z,7.68
2022-09-24T04:25:17.959Z,7.72
2022-09-24T04:27:45.414Z,6.85
2022-09-24T04:30:13.612Z,7.60
2022-09-24T04:32:43.113Z,7.15
2022-09-24T04:35:10.377Z,7.43
2022-09-24T04:37:37.637Z,7.07
2022-09-24T04:40:05.755Z,6.85
2022-09-24T04:42:32.579Z,7.03
2022-09-24T04:44:59.341Z,18.17
2022-09-24T04:47:26.124Z,60.63
2022-09-24T04:49:52.843Z,40.67
2022-09-24T04:52:19.724Z,36.17
2022-09-24T04:54:46.928Z,34.15
2022-09-24T04:57:14.779Z,28.75
2022-09-24T04:59:42.407Z,24.67
2022-09-24T05:02:09.907Z,22.30
2022-09-24T05:04:37.389Z,20.38
2022-09-24T05:07:04.558Z,20.48
2022-09-24T05:09:32.081Z,18.50
2022-09-24T05:11:59.274Z,17.70
2022-09-24T05:14:26.325Z,16.95
2022-09-24T05:16:53.396Z,17.60
2022-09-24T05:19:20.412Z,33.38
2022-09-24T05:21:47.137Z,37.55
2022-09-24T05:24:14.102Z,33.00
2022-09-24T05:26:59.629Z,30.05
2022-09-24T05:29:26.684Z,24.73
2022-09-24T05:31:53.379Z,22.38
2022-09-24T05:34:20.146Z,21.27
2022-09-24T05:36:46.938Z,19.30
2022-09-24T05:39:14.153Z,19.48
2022-09-24T05:41:41.414Z,17.42
2022-09-24T05:44:08.141Z,16.67
2022-09-24T05:46:35.765Z,16.05
2022-09-24T05:49:02.678Z,16.15
2022-09-24T05:51:29.440Z,15.85
2022-09-24T05:53:56.189Z,14.40
2022-09-24T05:56:22.929Z,15.43
2022-09-24T05:58:50.376Z,14.88
2022-09-24T06:01:17.249Z,13.82
2022-09-24T06:03:44.042Z,14.48
2022-09-24T06:06:10.795Z,14.32
2022-09-24T06:08:37.565Z,13.25
2022-09-24T06:11:06.711Z,13.15
2022-09-24T06:13:34.942Z,12.38
2022-09-24T06:16:03.264Z,12.20
2022-09-24T06:18:30.142Z,12.70
2022-09-24T06:21:04.916Z,12.57
2022-09-24T06:23:32.135Z,41.63
2022-09-24T06:25:59.040Z,35.70
2022-09-24T06:28:25.938Z,31.30
2022-09-24T06:30:53.437Z,27.55
2022-09-24T06:33:20.663Z,23.80
2022-09-24T06:35:48.480Z,22.45
2022-09-24T06:38:17.057Z,20.65
2022-09-24T06:40:50.866Z,19.77
2022-09-24T06:43:18.203Z,18.83
2022-09-24T06:45:45.441Z,17.67
2022-09-24T06:48:13.893Z,16.98
2022-09-24T06:50:45.526Z,16.02
2022-09-24T06:53:13.060Z,15.95
2022-09-24T06:55:40.453Z,16.10
2022-09-24T06:58:09.632Z,15.73
2022-09-24T07:00:37.157Z,65.70
2022-09-24T07:03:04.260Z,95.88
2022-09-24T07:05:31.375Z,75.80
2022-09-24T07:07:58.199Z,65.18
2022-09-24T07:10:25.296Z,132.75
2022-09-24T07:12:52.132Z,136.02
2022-09-24T07:15:18.923Z,109.30
2022-09-24T07:17:45.725Z,98.97
2022-09-24T07:20:12.544Z,87.40
2022-09-24T07:22:40.653Z,74.57
2022-09-24T07:25:09.535Z,67.47
2022-09-24T07:27:36.420Z,60.92
2022-09-24T07:30:06.268Z,57.53
2022-09-24T07:32:33.329Z,54.38
2022-09-24T07:35:00.217Z,52.05
2022-09-24T07:37:27.112Z,49.17
2022-09-24T07:39:53.915Z,49.97
2022-09-24T07:42:21.720Z,46.17
2022-09-24T07:44:48.697Z,45.45
2022-09-24T07:47:15.859Z,65.15
2022-09-24T07:49:43.000Z,101.53
2022-09-24T07:52:10.943Z,83.45
2022-09-24T07:54:38.323Z,72.65
2022-09-24T07:57:13.663Z,65.95
2022-09-24T07:59:41.019Z,60.92
2022-09-24T08:02:15.231Z,55.33
2022-09-24T08:04:42.120Z,51.58
2022-09-24T08:07:09.004Z,49.92
2022-09-24T08:09:35.848Z,46.75
2022-09-24T08:12:02.695Z,45.72
2022-09-24T08:14:29.520Z,44.33
2022-09-24T08:16:56.708Z,43.33
2022-09-24T08:19:23.524Z,40.92
2022-09-24T08:21:50.377Z,41.20
2022-09-24T08:24:17.381Z,42.15
2022-09-24T08:26:44.148Z,39.55
2022-09-24T08:29:11.100Z,40.28
2022-09-24T08:31:37.982Z,40.20
2022-09-24T08:34:04.899Z,39.15
2022-09-24T08:36:31.744Z,37.55
2022-09-24T08:38:59.142Z,36.88
2022-09-24T08:41:39.925Z,36.40
2022-09-24T08:44:43.962Z,35.08
2022-09-24T08:47:36.487Z,33.63
2022-09-24T08:50:30.625Z,35.40
2022-09-24T08:53:36.359Z,33.83
2022-09-24T08:56:05.766Z,31.52
2022-09-24T08:58:45.893Z,31.73
2022-09-24T09:01:12.936Z,41.33
2022-09-24T09:03:40.197Z,73.80
2022-09-24T09:06:40.979Z,69.18
2022-09-24T09:09:14.769Z,55.80
2022-09-24T09:11:47.210Z,48.40
2022-09-24T09:14:20.733Z,45.88
2022-09-24T09:16:55.870Z,41.70
2022-09-24T09:19:27.223Z,39.05
2022-09-24T09:22:03.176Z,38.85
2022-09-24T09:24:48.924Z,36.38
2022-09-24T09:27:17.758Z,37.95
2022-09-24T09:29:47.338Z,34.20
2022-09-24T09:32:29.768Z,34.80
2022-09-24T09:35:19.467Z,34.72
2022-09-24T09:40:50.808Z,34.13
2022-09-24T09:43:18.596Z,32.33
2022-09-24T09:46:21.678Z,29.83
2022-09-24T09:48:55.446Z,30.50
2022-09-24T09:51:25.923Z,31.35
2022-09-24T09:54:02.947Z,28.52
2022-09-24T09:56:34.311Z,28.85
2022-09-24T09:59:13.381Z,29.08
2022-09-24T10:01:42.424Z,29.67
2022-09-24T10:04:32.325Z,29.58
2022-09-24T10:07:17.124Z,29.17
2022-09-24T10:09:45.411Z,27.55
2022-09-24T10:12:14.992Z,26.92
2022-09-24T10:14:42.311Z,26.05
2022-09-24T10:17:18.413Z,26.50
2022-09-24T10:19:47.936Z,26.13
2022-09-24T10:22:24.108Z,26.80
2022-09-24T10:24:51.617Z,27.13
2022-09-24T10:27:32.390Z,26.02
2022-09-24T10:30:18.151Z,25.77
2022-09-24T10:32:45.773Z,25.80
2022-09-24T10:35:41.903Z,55.40
2022-09-24T10:38:19.937Z,67.28
2022-09-24T10:40:47.440Z,59.00
2022-09-24T10:43:22.128Z,52.63
2022-09-24T10:46:07.527Z,49.13
2022-09-24T10:48:50.519Z,42.17
2022-09-24T10:51:29.147Z,40.58
2022-09-24T10:54:14.998Z,37.60
2022-09-24T10:56:46.663Z,36.03
2022-09-24T10:59:40.043Z,34.72
2022-09-24T11:02:49.113Z,33.30
2022-09-24T11:05:23.059Z,33.22
2022-09-24T11:07:56.586Z,31.98
2022-09-24T11:10:51.679Z,31.25
2022-09-24T11:13:50.472Z,29.38
2022-09-24T11:19:13.497Z,28.95
2022-09-24T11:22:04.790Z,29.63
2022-09-24T11:25:02.846Z,28.92
2022-09-24T11:27:51.853Z,28.50
2022-09-24T11:30:21.233Z,28.13
2022-09-24T11:32:57.516Z,27.25
2022-09-24T11:35:38.429Z,27.17
2022-09-24T11:38:27.437Z,27.50
2022-09-24T11:41:03.570Z,28.00
2022-09-24T11:43:44.538Z,49.00
2022-09-24T11:46:38.747Z,49.90
2022-09-24T11:49:42.992Z,46.08
2022-09-24T11:52:14.397Z,43.80
2022-09-24T11:54:59.177Z,42.95
2022-09-24T11:57:29.191Z,41.08
2022-09-24T12:00:12.637Z,40.08
2022-09-24T12:02:51.553Z,39.30
2022-09-24T12:05:32.686Z,39.00
2022-09-24T12:08:34.422Z,38.88
2022-09-24T12:11:13.751Z,45.92
2022-09-24T12:13:46.081Z,49.70
2022-09-24T12:16:19.728Z,52.60
2022-09-24T12:19:08.178Z,53.80
2022-09-24T12:21:40.627Z,62.47
2022-09-24T12:24:21.967Z,60.08
2022-09-24T12:26:49.757Z,61.65
2022-09-24T12:29:57.220Z,60.28
2022-09-24T12:32:56.987Z,60.45
2022-09-24T12:35:32.702Z,56.05
2022-09-24T12:38:23.446Z,57.20
2022-09-24T12:41:24.132Z,52.97
2022-09-24T12:44:13.830Z,55.17
2022-09-24T12:46:55.727Z,53.08
2022-09-24T12:51:49.581Z,50.80
2022-09-24T12:54:36.234Z,51.15
2022-09-24T12:57:07.250Z,50.33
2022-09-24T12:59:34.100Z,49.58
2022-09-24T13:02:23.652Z,47.83
2022-09-24T13:07:40.546Z,45.22
2022-09-24T13:10:31.330Z,46.00
2022-09-24T13:13:02.532Z,44.42
2022-09-24T13:15:40.847Z,43.15
2022-09-24T13:18:11.133Z,44.05
2022-09-24T13:20:40.303Z,42.97
2022-09-24T13:23:19.780Z,41.65
2022-09-24T13:25:55.545Z,43.22
2022-09-24T13:28:37.710Z,39.97
2022-09-24T13:31:14.844Z,40.00
2022-09-24T13:33:45.090Z,39.70
2022-09-24T13:36:23.521Z,38.83
2022-09-24T13:38:58.342Z,39.15
2022-09-24T13:41:43.823Z,37.80
2022-09-24T13:44:22.539Z,36.92
2022-09-24T13:46:54.274Z,36.03
2022-09-24T13:49:22.814Z,37.17
2022-09-24T13:52:07.195Z,41.17
2022-09-24T13:54:36.954Z,44.92
2022-09-24T13:59:40.848Z,37.30
2022-09-24T14:02:27.194Z,38.10
2022-09-24T14:04:58.313Z,36.22
2022-09-24T14:07:26.292Z,35.30
2022-09-24T14:10:13.088Z,36.65
2022-09-24T14:12:40.143Z,35.53
2022-09-24T14:15:26.244Z,33.88
2022-09-24T14:17:59.829Z,33.10
2022-09-24T14:20:30.748Z,33.55
2022-09-24T14:22:57.698Z,31.60
2022-09-24T14:25:30.961Z,31.60
2022-09-24T14:27:59.319Z,32.05
2022-09-24T14:30:28.567Z,31.25
2022-09-24T14:33:08.233Z,30.73
2022-09-24T14:38:13.880Z,29.67
2022-09-24T14:40:45.533Z,28.98
2022-09-24T14:43:28.853Z,28.58
2022-09-24T14:46:03.229Z,27.60
2022-09-24T14:48:32.263Z,29.17
2022-09-24T14:50:59.130Z,27.58
2022-09-24T14:53:35.390Z,30.70
2022-09-24T14:56:32.434Z,118.72
2022-09-24T14:59:00.133Z,82.50
2022-09-24T15:01:33.947Z,69.45
2022-09-24T15:04:05.550Z,63.70
2022-09-24T15:06:36.499Z,61.33
2022-09-24T15:09:24.017Z,61.33
2022-09-24T15:11:50.870Z,56.17
2022-09-24T15:14:18.498Z,52.30
2022-09-24T15:16:47.612Z,46.67
2022-09-24T15:19:20.209Z,48.13
2022-09-24T15:21:51.309Z,46.67
2022-09-24T15:24:19.949Z,44.75
2022-09-24T15:27:04.797Z,43.08
2022-09-24T15:29:31.970Z,42.65
2022-09-24T15:31:59.077Z,40.28
2022-09-24T15:34:26.166Z,38.95
2022-09-24T15:36:55.433Z,53.65
2022-09-24T15:39:23.392Z,47.70
2022-09-24T15:41:50.157Z,43.70
2022-09-24T15:44:32.886Z,42.72
2022-09-24T15:47:00.791Z,43.20
2022-09-24T15:49:27.688Z,39.42
2022-09-24T15:52:03.181Z,40.35
2022-09-24T15:54:30.015Z,51.67
2022-09-24T15:56:56.818Z,48.63
2022-09-24T15:59:23.731Z,45.55
2022-09-24T16:01:53.490Z,43.05
2022-09-24T16:04:20.404Z,40.97
2022-09-24T16:06:47.335Z,40.20
2022-09-24T16:09:14.159Z,38.38
2022-09-24T16:11:41.163Z,35.30
2022-09-24T16:14:08.559Z,35.50
2022-09-24T16:16:35.529Z,32.95
2022-09-24T16:19:02.565Z,32.95
2022-09-24T16:21:29.594Z,32.17
2022-09-24T16:23:57.190Z,45.97
2022-09-24T16:26:24.572Z,49.65
2022-09-24T16:28:51.700Z,45.50
2022-09-24T16:31:21.604Z,42.03
2022-09-24T16:33:48.653Z,40.92
2022-09-24T16:36:15.689Z,39.08
2022-09-24T16:38:42.500Z,36.67
2022-09-24T16:41:10.685Z,35.88
2022-09-24T16:43:37.637Z,34.35
2022-09-24T16:46:06.918Z,34.40
2022-09-24T16:48:34.010Z,32.85
2022-09-24T16:51:11.651Z,33.30
2022-09-24T16:53:38.838Z,31.95
2022-09-24T16:56:08.412Z,31.80
2022-09-24T16:58:35.752Z,31.30
2022-09-24T17:01:11.843Z,30.35
2022-09-24T17:03:39.152Z,29.15
2022-09-24T17:06:06.664Z,29.83
2022-09-24T17:08:55.510Z,44.47
2022-09-24T17:11:22.878Z,47.20
2022-09-24T17:13:50.220Z,41.63
2022-09-24T17:16:18.701Z,38.53
2022-09-24T17:18:47.026Z,36.47
2022-09-24T17:21:13.830Z,35.15
2022-09-24T17:23:40.896Z,32.67
2022-09-24T17:26:11.712Z,31.02
2022-09-24T17:28:40.813Z,32.40
2022-09-24T17:31:08.568Z,31.17
2022-09-24T17:33:43.432Z,30.08
2022-09-24T17:36:12.463Z,29.58
2022-09-24T17:38:39.380Z,28.17
2022-09-24T17:43:41.506Z,27.20
2022-09-24T17:46:13.827Z,30.27
2022-09-24T17:48:46.196Z,29.40
2022-09-24T17:51:22.021Z,28.15
2022-09-24T17:53:50.302Z,28.25
2022-09-24T17:56:17.486Z,27.40
2022-09-24T17:58:46.920Z,26.38
2022-09-24T18:01:24.419Z,25.33
2022-09-24T18:03:55.635Z,25.30
2022-09-24T18:06:25.565Z,24.13
2022-09-24T18:08:54.079Z,25.20
2022-09-24T18:11:25.754Z,23.88
2022-09-24T18:13:54.509Z,23.63
2022-09-24T18:16:23.346Z,24.63
2022-09-24T18:18:50.197Z,22.45
2022-09-24T18:21:18.906Z,23.63
2022-09-24T18:23:46.683Z,22.90
2022-09-24T18:26:19.076Z,23.17
2022-09-24T18:28:53.830Z,22.88
2022-09-24T18:31:21.956Z,23.33
2022-09-24T18:33:50.312Z,22.50
2022-09-24T18:36:19.243Z,21.73
2022-09-24T18:38:46.145Z,22.45
2022-09-24T18:41:22.849Z,21.92
2022-09-24T18:43:50.899Z,21.70
2022-09-24T18:46:18.977Z,21.00
2022-09-24T18:48:48.516Z,20.73
2022-09-24T18:51:22.280Z,20.60
2022-09-24T18:54:03.369Z,21.63
2022-09-24T18:56:30.993Z,20.88
2022-09-24T18:59:07.158Z,20.55
2022-09-24T19:01:36.843Z,20.80
2022-09-24T19:04:04.074Z,19.73
2022-09-24T19:06:31.623Z,20.13
2022-09-24T19:08:58.315Z,20.10
2022-09-24T19:11:25.084Z,19.15
2022-09-24T19:13:53.796Z,19.80
2022-09-24T19:16:23.566Z,19.35
2022-09-24T19:18:51.521Z,20.00
2022-09-24T19:21:18.502Z,19.27
2022-09-24T19:23:47.713Z,18.73
2022-09-24T19:26:23.983Z,18.92
2022-09-24T19:28:51.145Z,17.48
2022-09-24T19:31:26.847Z,18.48
2022-09-24T19:33:54.117Z,17.67
2022-09-24T19:36:22.195Z,18.55
2022-09-24T19:38:49.425Z,17.63
2022-09-24T19:41:27.073Z,18.17
2022-09-24T19:43:58.614Z,17.40
2022-09-24T19:46:27.189Z,17.67
2022-09-24T19:48:55.348Z,17.48
2022-09-24T19:51:28.081Z,16.75
2022-09-24T19:53:57.049Z,16.88
2022-09-24T19:56:25.357Z,16.23
2022-09-24T19:58:56.866Z,16.52
2022-09-24T20:01:27.851Z,16.55
2022-09-24T20:03:55.278Z,16.30
2022-09-24T20:06:24.443Z,16.40
2022-09-24T20:08:51.415Z,16.65
2022-09-24T20:11:20.803Z,15.65
2022-09-24T20:13:51.906Z,16.40
2022-09-24T20:16:21.516Z,16.35
2022-09-24T20:21:17.212Z,15.40
2022-09-24T20:23:45.219Z,15.70
2022-09-24T20:26:31.499Z,15.30
2022-09-24T20:28:58.501Z,14.75
2022-09-24T20:31:25.787Z,14.95
2022-09-24T20:33:52.867Z,14.85
2022-09-24T20:36:24.073Z,15.15
2022-09-24T20:38:51.417Z,15.13
2022-09-24T20:41:23.795Z,13.77
2022-09-24T20:43:51.121Z,24.55
2022-09-24T20:46:24.178Z,26.35
2022-09-24T20:48:59.054Z,20.33
2022-09-24T20:51:28.987Z,19.83
2022-09-24T20:53:56.030Z,20.20
2022-09-24T20:56:22.960Z,20.13
2022-09-24T20:58:51.766Z,17.63
2022-09-24T21:01:19.464Z,18.73
2022-09-24T21:03:49.262Z,17.90
2022-09-24T21:06:16.948Z,16.40
2022-09-24T21:08:45.434Z,16.77
2022-09-24T21:11:20.521Z,15.77
2022-09-24T21:13:52.254Z,15.55
2022-09-24T21:16:21.231Z,14.73
2022-09-24T21:18:49.072Z,13.90
2022-09-24T21:21:20.946Z,14.50
2022-09-24T21:23:49.707Z,13.52
2022-09-24T21:26:21.975Z,14.33
2022-09-24T21:28:51.232Z,12.88
2022-09-24T21:31:24.943Z,12.63
2022-09-24T21:33:53.026Z,13.23
2022-09-24T21:36:21.295Z,13.25
2022-09-24T21:38:54.846Z,12.75
2022-09-24T21:41:35.192Z,12.27
2022-09-24T21:44:03.144Z,12.80
2022-09-24T21:46:32.991Z,12.10
2022-09-24T21:49:00.596Z,13.00
2022-09-24T21:51:30.075Z,33.10
2022-09-24T21:54:03.320Z,83.38
2022-09-24T21:56:31.328Z,74.82
2022-09-24T21:58:58.329Z,64.70
2022-09-24T22:01:28.044Z,57.90
2022-09-24T22:06:28.676Z,46.90
2022-09-24T22:08:57.797Z,41.17
2022-09-24T22:11:26.320Z,38.53
2022-09-24T22:14:00.954Z,38.30
2022-09-24T22:16:28.953Z,33.13
2022-09-24T22:18:55.849Z,34.20
2022-09-24T22:21:22.901Z,31.00
2022-09-24T22:23:49.717Z,29.50
2022-09-24T22:26:17.571Z,30.17
2022-09-24T22:28:44.641Z,27.05
2022-09-24T22:31:14.048Z,26.90
2022-09-24T22:33:59.802Z,27.40
2022-09-24T22:36:31.184Z,25.92
2022-09-24T22:38:59.432Z,24.73
2022-09-24T22:41:28.971Z,24.88
2022-09-24T22:43:57.007Z,24.88
2022-09-24T22:46:27.738Z,25.10
2022-09-24T22:48:55.963Z,23.85
2022-09-24T22:51:24.209Z,22.70
2022-09-24T22:53:51.817Z,22.38
2022-09-24T22:56:20.929Z,21.10
2022-09-24T22:58:59.091Z,21.80
2022-09-24T23:01:34.480Z,22.80
2022-09-24T23:04:01.866Z,21.25
2022-09-24T23:06:30.239Z,20.75
2022-09-24T23:08:57.116Z,20.25
2022-09-24T23:11:28.960Z,19.70
2022-09-24T23:13:58.497Z,19.33
2022-09-24T23:16:46.710Z,19.73
2022-09-24T23:19:16.573Z,18.80
2022-09-24T23:24:17.631Z,18.65
2022-09-24T23:26:45.255Z,18.42
2022-09-24T23:29:12.982Z,18.67
2022-09-24T23:31:39.906Z,17.05
2022-09-24T23:34:07.594Z,17.08
2022-09-24T23:36:35.535Z,17.55
2022-09-24T23:39:03.163Z,16.73
2022-09-24T23:41:31.495Z,16.63
2022-09-24T23:43:58.958Z,16.10
2022-09-24T23:46:25.738Z,16.02
2022-09-24T23:48:52.559Z,16.60
2022-09-24T23:51:19.260Z,15.70
2022-09-24T23:53:46.038Z,15.82
2022-09-24T23:56:13.408Z,15.43
2022-09-24T23:58:41.996Z,15.88
